Time;durP1;ratioP1;P1;durP2;ratioP2;P2;SDS_P1;SDS_P2;PMS_P1;PMS_P2;Temp;Humidity;BMP_temperature;BMP_pressure;BME280_temperature;BME280_humidity;BME280_pressure;Samples;Min_cycle;Max_cycle;Signal;HPM_P1;HPM_P2
2021/03/05 00:01:21;;;;;;;43.73;17.17;;;;;;;26.91;28.85;158229.69;1779252;79;21254;-68
2021/03/05 00:03:55;;;;;;;33.80;15.32;;;;;;;26.93;28.73;158235.00;1750540;79;21315;-69
2021/03/05 00:06:27;;;;;;;35.83;14.58;;;;;;;26.87;28.07;158219.03;1785285;80;21360;-69
2021/03/05 00:09:00;;;;;;;26.00;12.33;;;;;;;26.75;27.65;158187.12;1774901;79;21188;-69
2021/03/05 00:11:33;;;;;;;33.10;12.93;;;;;;;26.95;27.61;158240.33;1751931;79;21857;-69
2021/03/05 00:14:06;;;;;;;31.27;13.70;;;;;;;27.13;27.45;158288.22;1706143;83;21250;-68
2021/03/05 00:16:38;;;;;;;33.65;13.78;;;;;;;27.07;27.67;158272.28;1753298;80;21391;-68
2021/03/05 00:19:11;;;;;;;36.85;14.75;;;;;;;26.80;27.96;158199.09;1754106;80;21340;-68
2021/03/05 00:21:44;;;;;;;33.75;14.83;;;;;;;26.81;28.04;158201.75;1745297;81;21360;-68
2021/03/05 00:24:16;;;;;;;39.83;14.93;;;;;;;26.92;28.05;158230.98;1711445;82;21269;-68
2021/03/05 00:26:50;;;;;;;43.15;15.10;;;;;;;27.06;28.08;158269.63;1776886;79;21388;-69
2021/03/05 00:29:22;;;;;;;37.67;14.87;;;;;;;27.10;28.10;158278.92;1779382;79;21405;-68
2021/03/05 00:31:55;;;;;;;38.92;16.27;;;;;;;27.13;28.16;158288.22;1768649;79;21374;-70
2021/03/05 00:34:27;;;;;;;42.93;16.80;;;;;;;27.24;28.13;158317.45;1753116;80;21380;-69
2021/03/05 00:37:00;;;;;;;41.55;15.35;;;;;;;27.27;28.14;158325.45;1712727;82;21230;-69
2021/03/05 00:39:32;;;;;;;31.57;12.93;;;;;;;27.36;28.05;158348.06;1700684;82;21918;-69
2021/03/05 00:42:05;;;;;;;33.38;13.88;;;;;;;27.24;27.83;158317.45;1722317;83;21250;-70
2021/03/05 00:44:37;;;;;;;29.90;11.68;;;;;;;27.15;27.65;158293.53;1715305;82;21230;-68
2021/03/05 00:47:10;;;;;;;33.50;12.60;;;;;;;27.02;27.57;158257.61;1699376;84;21217;-69
2021/03/05 00:49:43;;;;;;;28.80;11.85;;;;;;;26.94;27.55;158236.31;1768919;79;21197;-69
2021/03/05 00:52:15;;;;;;;29.05;11.33;;;;;;;26.92;27.70;158232.34;1773607;79;21338;-69
2021/03/05 00:54:48;;;;;;;33.30;12.98;;;;;;;26.91;27.77;158229.69;1774261;79;21213;-69
2021/03/05 00:57:20;;;;;;;26.00;11.80;;;;;;;26.96;27.66;158243.00;1787015;79;21294;-68
2021/03/05 00:59:53;;;;;;;29.90;12.03;;;;;;;26.78;27.75;158195.13;1776180;79;21194;-68
2021/03/05 01:02:25;;;;;;;28.10;9.93;;;;;;;26.89;27.60;158224.36;1761726;79;22518;-68
2021/03/05 01:04:58;;;;;;;18.65;9.10;;;;;;;26.88;27.33;158220.39;1791564;79;22709;-68
2021/03/05 01:07:31;;;;;;;23.32;9.40;;;;;;;26.79;27.07;158197.78;1775304;80;21363;-70
2021/03/05 01:10:06;;;;;;;19.02;8.03;;;;;;;26.66;27.01;158163.22;1772490;79;21387;-70
2021/03/05 01:12:38;;;;;;;18.55;7.40;;;;;;;26.58;26.85;158140.63;1757440;80;21707;-69
2021/03/05 01:15:12;;;;;;;16.90;7.12;;;;;;;26.53;26.87;158126.00;1774837;79;21454;-68
2021/03/05 01:17:44;;;;;;;18.77;8.28;;;;;;;26.42;26.79;158096.78;1771906;79;21384;-69
2021/03/05 01:20:19;;;;;;;18.50;7.78;;;;;;;26.42;26.79;158096.78;1768338;79;21344;-69
2021/03/05 01:22:52;;;;;;;16.20;6.95;;;;;;;26.28;26.94;158059.52;1787617;79;21368;-70
2021/03/05 01:25:27;;;;;;;16.52;7.22;;;;;;;26.28;26.98;158060.88;1795194;79;21347;-69
2021/03/05 01:28:00;;;;;;;16.45;6.33;;;;;;;26.35;26.99;158079.45;1775140;79;21212;-68
2021/03/05 01:30:32;;;;;;;18.35;8.38;;;;;;;26.37;26.99;158084.78;1792473;79;21190;-68
2021/03/05 01:33:06;;;;;;;16.40;6.90;;;;;;;26.35;27.04;158079.45;1787072;80;21391;-68
2021/03/05 01:35:39;;;;;;;15.32;7.35;;;;;;;26.37;26.98;158084.78;1765209;79;21232;-68
2021/03/05 01:38:11;;;;;;;16.77;7.70;;;;;;;26.40;27.04;158091.41;1718383;81;21368;-68
2021/03/05 01:40:46;;;;;;;21.30;8.40;;;;;;;26.44;26.87;158103.47;1711988;81;21256;-68
2021/03/05 01:43:19;;;;;;;17.07;7.50;;;;;;;26.41;26.87;158095.47;1703757;83;21371;-68
2021/03/05 01:45:51;;;;;;;17.90;7.00;;;;;;;26.40;26.90;158092.77;1777954;79;21221;-67
2021/03/05 01:48:24;;;;;;;16.82;7.25;;;;;;;26.46;26.90;158107.44;1760099;80;21836;-67
2021/03/05 01:51:16;;;;;;;17.00;6.95;;;;;;;26.38;26.92;158086.13;1719909;82;21298;-68
2021/03/05 01:53:49;;;;;;;16.15;7.55;;;;;;;26.36;26.99;158080.81;1717120;82;21434;-67
2021/03/05 01:56:36;;;;;;;13.75;6.12;;;;;;;26.42;26.75;158096.78;1729824;82;21868;-67
2021/03/05 01:59:11;;;;;;;17.40;6.87;;;;;;;26.38;26.81;158087.44;1720293;83;21347;-67
2021/03/05 02:01:44;;;;;;;16.30;6.50;;;;;;;26.26;26.81;158055.56;1731870;82;21728;-68
2021/03/05 02:04:17;;;;;;;16.17;7.20;;;;;;;26.15;26.83;158026.33;1723157;82;21311;-67
2021/03/05 02:06:51;;;;;;;13.62;6.28;;;;;;;26.59;26.60;158144.64;1722166;83;21218;-68
2021/03/05 02:09:23;;;;;;;16.35;6.78;;;;;;;26.70;26.48;158173.88;1771192;79;21706;-67
2021/03/05 02:11:57;;;;;;;16.67;6.22;;;;;;;26.05;26.89;157998.42;1761588;80;21391;-68
2021/03/05 02:14:29;;;;;;;16.65;6.17;;;;;;;25.90;27.04;157958.61;1792243;79;21193;-67
2021/03/05 02:17:27;;;;;;;15.28;6.70;;;;;;;25.87;27.03;157950.63;1750456;80;21384;-68
2021/03/05 02:20:39;;;;;;;16.62;7.67;;;;;;;25.72;27.23;157910.72;1771521;79;21241;-68
2021/03/05 02:23:39;;;;;;;15.95;6.20;;;;;;;25.72;27.20;157912.08;1759350;80;21332;-68
2021/03/05 02:26:56;;;;;;;14.70;6.22;;;;;;;26.36;26.76;158080.81;1774522;79;21249;-68
2021/03/05 02:30:01;;;;;;;21.82;6.58;;;;;;;25.80;27.08;157932.06;1799729;79;21360;-67
2021/03/05 02:32:40;;;;;;;13.20;6.08;;;;;;;25.69;27.26;157904.09;1793035;79;21387;-67
2021/03/05 02:35:13;;;;;;;15.65;6.75;;;;;;;25.58;27.23;157874.89;1793961;79;21355;-67
2021/03/05 02:37:47;;;;;;;16.57;6.65;;;;;;;25.49;27.40;157849.64;1800943;79;21273;-67
2021/03/05 02:40:28;;;;;;;17.52;6.85;;;;;;;25.49;27.44;157848.34;1797510;79;21872;-68
2021/03/05 02:43:04;;;;;;;;;;;;;;;25.52;27.46;157856.33;1768507;79;21432;-69
2021/03/05 02:45:40;;;;;;;14.75;6.12;;;;;;;25.64;27.39;157889.50;1776874;79;20207;-68
2021/03/05 02:48:21;;;;;;;17.90;7.90;;;;;;;25.59;27.49;157877.56;1734968;81;21249;-68
2021/03/05 02:50:56;;;;;;;15.98;6.20;;;;;;;25.58;27.52;157874.89;1771506;79;21360;-67
2021/03/05 02:53:29;;;;;;;15.95;6.97;;;;;;;25.58;27.52;157873.53;1718123;82;21351;-68
2021/03/05 02:56:10;;;;;;;17.87;7.90;;;;;;;25.55;27.55;157864.25;1784930;79;21348;-67
2021/03/05 02:58:50;;;;;;;16.10;6.87;;;;;;;25.56;27.56;157868.27;1743730;80;21351;-67
2021/03/05 03:01:24;;;;;;;16.13;6.57;;;;;;;25.58;27.57;157872.23;1786818;79;21337;-67
2021/03/05 03:03:57;;;;;;;21.00;7.40;;;;;;;25.55;27.69;157864.25;1779325;79;21341;-68
2021/03/05 03:06:29;;;;;;;14.20;6.85;;;;;;;25.57;27.72;157869.56;1779600;79;21240;-68
2021/03/05 03:09:04;;;;;;;17.32;7.25;;;;;;;25.62;27.64;157884.17;1770399;80;21359;-68
2021/03/05 03:11:38;;;;;;;17.62;7.10;;;;;;;25.60;27.69;157880.22;1772789;79;21197;-68
2021/03/05 03:14:13;;;;;;;17.10;6.75;;;;;;;25.59;27.71;157876.19;1746764;79;21264;-67
2021/03/05 03:16:45;;;;;;;18.67;7.12;;;;;;;25.55;27.82;157864.25;1774854;80;21335;-68
2021/03/05 03:19:20;;;;;;;17.45;7.17;;;;;;;25.56;27.87;157868.27;1773921;80;21337;-67
2021/03/05 03:21:52;;;;;;;19.35;8.30;;;;;;;25.56;27.78;157868.27;1781646;79;21250;-68
2021/03/05 03:24:25;;;;;;;19.07;6.97;;;;;;;25.65;27.69;157892.16;1769315;79;21202;-67
2021/03/05 03:26:57;;;;;;;18.98;7.65;;;;;;;25.54;27.82;157862.94;1769217;79;21273;-68
2021/03/05 03:29:30;;;;;;;20.75;8.58;;;;;;;25.56;27.95;157868.27;1755070;81;21252;-67
2021/03/05 03:32:04;;;;;;;21.27;8.05;;;;;;;25.65;27.89;157892.16;1759463;79;21264;-68
2021/03/05 03:34:38;;;;;;;18.48;7.25;;;;;;;25.75;27.86;157918.70;1795184;79;21390;-67
2021/03/05 03:37:11;;;;;;;17.45;7.15;;;;;;;25.78;27.82;157926.73;1759304;79;21284;-68
2021/03/05 03:39:44;;;;;;;19.77;7.50;;;;;;;25.85;27.76;157945.31;1750322;81;21351;-67
2021/03/05 03:42:16;;;;;;;21.57;8.10;;;;;;;25.96;27.68;157975.88;1778643;79;21856;-67
2021/03/05 03:44:49;;;;;;;20.85;8.03;;;;;;;25.89;27.68;157955.95;1772964;80;21422;-67
2021/03/05 03:47:23;;;;;;;19.32;8.23;;;;;;;25.79;27.80;157929.41;1767099;80;21368;-68
2021/03/05 03:49:58;;;;;;;19.07;8.08;;;;;;;25.75;27.78;157918.70;1744851;81;21376;-67
2021/03/05 03:52:55;;;;;;;23.38;7.97;;;;;;;25.71;27.83;157909.42;1764542;79;21698;-67
2021/03/05 03:55:28;;;;;;;21.00;8.45;;;;;;;25.80;27.75;157932.06;1798664;79;21848;-67
2021/03/05 03:58:01;;;;;;;19.37;7.22;;;;;;;25.83;27.79;157941.34;1779857;79;22432;-67
2021/03/05 04:00:34;;;;;;;20.52;7.90;;;;;;;25.89;27.83;157957.25;1778306;79;21251;-68
2021/03/05 04:03:08;;;;;;;19.65;7.42;;;;;;;25.94;27.70;157969.20;1773661;80;21320;-67
2021/03/05 04:05:43;;;;;;;20.48;8.55;;;;;;;25.96;27.80;157974.53;1781773;79;21177;-68
2021/03/05 04:08:17;;;;;;;20.48;8.60;;;;;;;26.03;27.67;157993.16;1797642;79;21705;-69
2021/03/05 04:10:50;;;;;;;25.45;8.63;;;;;;;26.06;27.63;158002.44;1789149;79;21226;-70
2021/03/05 04:13:23;;;;;;;20.85;8.70;;;;;;;26.09;27.69;158009.06;1755394;79;21925;-68
2021/03/05 04:15:57;;;;;;;22.05;8.68;;;;;;;26.02;27.78;157990.48;1783413;79;21348;-67
2021/03/05 04:18:35;;;;;;;20.10;8.18;;;;;;;26.03;27.73;157993.16;1716570;82;21434;-68
2021/03/05 04:21:22;;;;;;;21.93;9.75;;;;;;;25.98;27.87;157979.84;1722165;82;21351;-68
2021/03/05 04:23:56;;;;;;;24.63;10.45;;;;;;;25.71;28.25;157909.42;1705706;83;21725;-68
2021/03/05 04:26:28;;;;;;;28.87;9.83;;;;;;;25.60;29.04;157880.22;1746073;81;21961;-69
2021/03/05 04:29:01;;;;;;;25.70;8.90;;;;;;;25.48;29.64;157847.00;1714645;83;21214;-70
2021/03/05 04:31:35;;;;;;;26.65;9.80;;;;;;;25.44;29.68;157835.05;1747442;81;21187;-69
2021/03/05 04:34:07;;;;;;;24.32;9.70;;;;;;;25.32;29.83;157803.19;1702513;82;21259;-68
2021/03/05 04:36:40;;;;;;;25.15;10.18;;;;;;;25.31;29.93;157800.53;1744106;80;21438;-69
2021/03/05 04:39:13;;;;;;;22.90;9.70;;;;;;;25.21;30.15;157775.34;1783110;79;21155;-69
2021/03/05 04:41:46;;;;;;;26.55;10.15;;;;;;;25.31;30.12;157800.53;1787413;78;21349;-70
2021/03/05 04:44:19;;;;;;;23.35;9.68;;;;;;;25.31;30.05;157801.87;1797410;79;21219;-71
2021/03/05 04:46:53;;;;;;;26.15;10.80;;;;;;;25.15;30.40;157759.38;1794356;79;21371;-73
2021/03/05 04:49:26;;;;;;;29.25;9.98;;;;;;;25.01;30.73;157720.86;1798428;79;21328;-69
2021/03/05 04:51:58;;;;;;;22.58;9.58;;;;;;;24.88;30.73;157687.66;1797152;79;21186;-70
2021/03/05 04:54:31;;;;;;;30.15;10.58;;;;;;;24.80;30.83;157666.44;1795981;79;21225;-70
2021/03/05 04:57:05;;;;;;;32.80;11.15;;;;;;;24.79;30.94;157662.47;1777913;79;21225;-71
2021/03/05 04:59:37;;;;;;;27.27;10.98;;;;;;;24.92;30.81;157696.98;1798631;79;21329;-74
2021/03/05 05:02:10;;;;;;;29.42;11.63;;;;;;;24.99;30.79;157716.89;1776314;79;21196;-71
2021/03/05 05:04:45;;;;;;;28.85;11.43;;;;;;;25.01;30.80;157722.16;1777527;79;21708;-70
2021/03/05 05:07:23;;;;;;;25.48;10.10;;;;;;;25.00;30.75;157719.50;1794853;79;21206;-70
2021/03/05 05:09:59;;;;;;;31.60;10.98;;;;;;;25.00;30.78;157718.20;1791833;79;21328;-75
2021/03/05 05:12:33;;;;;;;32.30;11.97;;;;;;;25.00;30.80;157719.50;1782521;79;21194;-70
2021/03/05 05:15:07;;;;;;;29.45;10.90;;;;;;;24.92;30.90;157696.98;1788711;79;21190;-70
2021/03/05 05:17:40;;;;;;;29.48;11.60;;;;;;;24.94;30.91;157703.59;1788081;79;21409;-68
2021/03/05 05:20:13;;;;;;;29.52;11.80;;;;;;;24.98;30.85;157712.88;1775199;78;21213;-70
2021/03/05 05:22:46;;;;;;;23.70;9.58;;;;;;;25.06;30.93;157735.45;1772240;79;21317;-70
2021/03/05 05:25:19;;;;;;;24.63;10.18;;;;;;;25.28;30.86;157792.59;1791223;79;21190;-71
2021/03/05 05:27:52;;;;;;;25.23;9.70;;;;;;;25.51;30.78;157853.66;1794777;79;21583;-68
2021/03/05 05:30:25;;;;;;;25.85;10.10;;;;;;;25.60;30.70;157880.22;1790775;79;21329;-69
2021/03/05 05:32:58;;;;;;;28.65;12.28;;;;;;;25.62;30.71;157884.17;1794681;79;21371;-70
2021/03/05 05:35:32;;;;;;;28.83;9.45;;;;;;;25.71;30.44;157909.42;1794112;79;21323;-70
2021/03/05 05:38:07;;;;;;;22.60;9.83;;;;;;;25.73;30.42;157913.38;1773648;78;21224;-69
2021/03/05 05:40:39;;;;;;;20.30;9.35;;;;;;;25.59;30.55;157877.56;1798999;79;21383;-68
2021/03/05 05:43:13;;;;;;;24.50;9.18;;;;;;;25.46;30.79;157840.38;1795846;79;21721;-72
2021/03/05 05:45:49;;;;;;;22.00;9.03;;;;;;;25.45;30.83;157837.70;1789636;78;21245;-70
2021/03/05 05:48:23;;;;;;;23.60;8.70;;;;;;;25.52;30.67;157857.63;1791975;79;21280;-72
2021/03/05 05:50:58;;;;;;;19.73;7.95;;;;;;;25.33;30.90;157805.84;1775084;79;21236;-69
2021/03/05 05:53:35;;;;;;;22.98;9.78;;;;;;;25.32;30.93;157804.55;1782619;79;21178;-68
2021/03/05 05:56:08;;;;;;;22.98;8.88;;;;;;;25.30;30.83;157799.22;1794649;79;21344;-68
2021/03/05 05:58:41;;;;;;;25.57;9.75;;;;;;;25.22;30.96;157778.00;1799153;79;21395;-70
2021/03/05 06:01:14;;;;;;;20.23;8.70;;;;;;;25.29;30.92;157796.56;1789928;79;21321;-68
2021/03/05 06:03:47;;;;;;;22.17;8.78;;;;;;;25.38;30.77;157820.44;1784262;79;21507;-70
2021/03/05 06:06:19;;;;;;;25.68;10.18;;;;;;;25.48;30.68;157845.69;1781008;79;21202;-69
2021/03/05 06:08:59;;;;;;;21.60;8.90;;;;;;;25.47;30.68;157844.33;1795053;79;21241;-69
2021/03/05 06:11:38;;;;;;;22.20;8.73;;;;;;;25.41;30.66;157828.42;1745930;79;21254;-70
2021/03/05 06:14:12;;;;;;;23.07;9.00;;;;;;;25.41;30.58;157828.42;1776320;79;21927;-70
2021/03/05 06:17:01;;;;;;;24.25;9.08;;;;;;;25.47;30.47;157843.03;1753712;79;21256;-67
2021/03/05 06:19:34;;;;;;;25.27;8.98;;;;;;;25.55;30.41;157864.25;1774082;79;21217;-69
2021/03/05 06:22:24;;;;;;;20.55;8.58;;;;;;;25.60;30.26;157878.86;1789343;79;21407;-68
2021/03/05 06:24:57;;;;;;;22.45;8.15;;;;;;;25.70;30.15;157906.75;1797500;79;21367;-69
2021/03/05 06:27:30;;;;;;;21.25;7.75;;;;;;;25.81;30.02;157934.66;1788684;79;21190;-68
2021/03/05 06:30:03;;;;;;;22.58;8.23;;;;;;;25.81;30.02;157936.03;1785027;79;21226;-68
2021/03/05 06:32:39;;;;;;;20.05;8.00;;;;;;;25.84;29.91;157944.00;1783325;79;21343;-68
2021/03/05 06:35:13;;;;;;;22.00;8.63;;;;;;;25.87;29.61;157951.94;1786398;79;21399;-70
2021/03/05 06:37:47;;;;;;;18.87;8.10;;;;;;;25.85;29.60;157945.31;1744738;79;21189;-68
2021/03/05 06:40:21;;;;;;;19.45;8.55;;;;;;;25.70;29.79;157905.41;1779633;79;21363;-69
2021/03/05 06:42:56;;;;;;;19.65;7.83;;;;;;;25.73;29.79;157914.75;1786936;79;21738;-68
2021/03/05 06:45:36;;;;;;;17.92;8.20;;;;;;;25.88;29.59;157953.28;1762499;79;21229;-70
2021/03/05 06:48:10;;;;;;;19.67;7.80;;;;;;;25.94;29.49;157969.20;1758577;80;21226;-69
2021/03/05 06:50:43;;;;;;;17.95;7.90;;;;;;;26.00;29.43;157986.47;1752676;80;21245;-68
2021/03/05 06:53:23;;;;;;;19.17;7.55;;;;;;;26.07;29.36;158005.09;1712935;83;21391;-72
2021/03/05 06:55:55;;;;;;;19.50;7.95;;;;;;;26.18;29.28;158032.95;1715616;82;21637;-68
2021/03/05 06:58:28;;;;;;;18.95;7.08;;;;;;;26.21;29.08;158040.94;1717015;82;21400;-69
2021/03/05 07:01:05;;;;;;;12.37;6.08;;;;;;;26.13;29.19;158019.70;1714092;82;21586;-68
2021/03/05 07:03:38;;;;;;;17.50;5.80;;;;;;;26.08;29.12;158006.41;1765379;79;21190;-69
2021/03/05 07:06:15;;;;;;;18.20;7.05;;;;;;;26.05;29.00;157998.42;1722958;83;21192;-68
2021/03/05 07:08:48;;;;;;;16.05;6.67;;;;;;;26.03;29.00;157993.16;1793277;79;21368;-70
2021/03/05 07:11:46;;;;;;;17.52;7.22;;;;;;;26.16;28.97;158027.64;1795858;79;21351;-68
2021/03/05 07:14:18;;;;;;;18.37;7.50;;;;;;;26.11;28.98;158014.38;1729409;82;21213;-69
2021/03/05 07:16:51;;;;;;;19.82;7.83;;;;;;;26.03;28.96;157994.45;1742786;81;21218;-68
2021/03/05 07:19:27;;;;;;;28.52;12.43;;;;;;;26.05;28.97;157999.78;1724901;82;21357;-68
2021/03/05 07:22:00;;;;;;;30.65;12.60;;;;;;;26.06;29.03;158002.44;1717407;82;21211;-69
2021/03/05 07:24:34;;;;;;;19.55;9.18;;;;;;;26.15;28.97;158025.03;1708492;82;21222;-70
2021/03/05 07:27:09;;;;;;;19.82;8.90;;;;;;;26.25;28.88;158052.89;1679065;83;21804;-69
2021/03/05 07:29:46;;;;;;;18.48;8.43;;;;;;;26.35;28.77;158078.16;1689934;84;21221;-69
2021/03/05 07:32:51;;;;;;;18.52;8.18;;;;;;;26.38;28.75;158087.44;1694473;83;21301;-69
2021/03/05 07:35:35;;;;;;;17.77;7.72;;;;;;;26.41;28.83;158095.47;1704694;82;21345;-68
2021/03/05 07:38:10;;;;;;;20.32;8.10;;;;;;;26.63;28.77;158155.25;1712691;82;21405;-69
2021/03/05 07:40:46;;;;;;;25.65;8.73;;;;;;;26.73;28.48;158180.50;1682763;82;21309;-69
2021/03/05 07:43:19;;;;;;;21.48;9.90;;;;;;;26.88;28.41;158221.69;1789754;79;21406;-70
2021/03/05 07:45:52;;;;;;;20.45;8.78;;;;;;;26.96;28.39;158241.64;1759914;79;21340;-69
2021/03/05 07:48:25;;;;;;;19.05;7.58;;;;;;;27.02;28.14;158257.61;1718794;82;22482;-69
2021/03/05 07:51:01;;;;;;;19.05;8.05;;;;;;;27.16;28.08;158296.20;1735949;82;21392;-69
2021/03/05 07:53:52;;;;;;;19.45;8.20;;;;;;;27.25;27.97;158320.12;1748354;81;21835;-69
2021/03/05 07:56:53;;;;;;;22.13;8.20;;;;;;;27.47;27.83;158378.61;1778210;79;21264;-69
2021/03/05 07:59:44;;;;;;;18.73;8.05;;;;;;;27.64;27.76;158423.91;1791524;79;21368;-69
2021/03/05 08:02:17;;;;;;;22.35;8.83;;;;;;;27.73;27.60;158449.13;1731546;81;21237;-68
2021/03/05 08:05:04;;;;;;;21.55;9.08;;;;;;;27.90;27.38;158494.38;1773868;79;21253;-69
2021/03/05 08:07:38;;;;;;;18.92;7.60;;;;;;;27.88;27.39;158489.05;1783714;79;21267;-68
2021/03/05 08:10:13;;;;;;;21.25;9.33;;;;;;;28.31;26.99;158602.19;1787767;79;21274;-69
2021/03/05 08:12:46;;;;;;;22.80;7.55;;;;;;;27.92;27.20;158498.34;1764263;80;21317;-70
2021/03/05 08:15:23;;;;;;;25.40;8.90;;;;;;;27.91;27.07;158495.69;1777680;79;21752;-69
2021/03/05 08:17:56;;;;;;;23.40;8.90;;;;;;;27.88;27.11;158489.05;1778396;79;21165;-69
2021/03/05 08:20:39;;;;;;;27.58;9.53;;;;;;;27.82;27.11;158471.75;1792746;79;21407;-69
2021/03/05 08:23:15;;;;;;;21.55;8.55;;;;;;;27.87;27.29;158486.38;1789383;79;21200;-68
2021/03/05 08:25:52;;;;;;;21.30;9.53;;;;;;;27.86;27.09;158482.41;1780365;79;21210;-68
2021/03/05 08:28:44;;;;;;;25.80;9.98;;;;;;;27.78;27.21;158461.09;1789772;79;21772;-68
2021/03/05 08:31:37;;;;;;;25.17;10.10;;;;;;;27.89;27.19;158491.72;1792233;79;21391;-69
2021/03/05 08:34:28;;;;;;;28.38;9.78;;;;;;;27.93;26.99;158502.38;1772872;80;21213;-68
2021/03/05 08:37:01;;;;;;;23.12;9.60;;;;;;;27.78;27.03;158462.45;1791406;79;21870;-70
2021/03/05 08:39:34;;;;;;;17.55;7.95;;;;;;;27.84;27.09;158477.08;1778046;79;21443;-69
2021/03/05 08:42:34;;;;;;;17.50;7.90;;;;;;;27.90;27.05;158493.02;1713687;82;21417;-68
2021/03/05 08:45:25;;;;;;;20.57;8.33;;;;;;;27.93;27.00;158501.02;1771236;79;21329;-69
2021/03/05 08:48:01;;;;;;;14.00;6.83;;;;;;;27.84;26.82;158477.08;1788106;79;21739;-68
2021/03/05 08:50:36;;;;;;;19.77;7.53;;;;;;;27.74;26.83;158450.50;1766483;79;21371;-68
2021/03/05 08:53:16;;;;;;;15.78;6.37;;;;;;;27.72;26.66;158446.47;1786789;79;21859;-68
2021/03/05 08:55:45;;;;;;;22.90;6.85;;;;;;;27.77;26.64;158459.78;1787739;79;21274;-68
2021/03/05 08:58:17;;;;;;;26.02;7.55;;;;;;;27.89;26.39;158490.41;1781012;79;21169;-68
2021/03/05 09:00:50;;;;;;;22.85;7.67;;;;;;;27.88;26.49;158487.75;1781561;79;21377;-69
2021/03/05 09:03:24;;;;;;;21.50;7.97;;;;;;;28.15;26.39;158559.53;1767965;79;21918;-68
2021/03/05 09:05:56;;;;;;;17.12;6.55;;;;;;;28.31;26.15;158602.19;1752624;80;21709;-69
2021/03/05 09:08:31;;;;;;;17.98;6.53;;;;;;;28.48;26.10;158650.06;1720142;82;21895;-68
2021/03/05 09:11:06;;;;;;;20.30;6.53;;;;;;;28.62;26.23;158686.03;1716253;82;21269;-70
2021/03/05 09:13:38;;;;;;;20.48;7.22;;;;;;;28.76;25.73;158723.31;1717326;82;21788;-69
2021/03/05 09:16:10;;;;;;;16.37;7.10;;;;;;;28.80;25.70;158733.92;1716106;82;21386;-68
2021/03/05 12:05:21;;;;;;;11.75;6.62;;;;;;;25.58;35.53;157874.89;1848364;77;28194;-68
2021/03/05 12:07:55;;;;;;;12.07;5.72;;;;;;;25.89;34.78;157955.95;1816235;79;21895;-69
2021/03/05 12:10:27;;;;;;;14.93;6.47;;;;;;;26.21;34.52;158042.30;1832822;77;21280;-68
2021/03/05 12:13:00;;;;;;;11.33;5.92;;;;;;;26.58;34.46;158141.98;1854894;77;21323;-68
2021/03/05 12:15:32;;;;;;;15.43;6.50;;;;;;;26.89;33.46;158224.36;1843189;77;21166;-67
2021/03/05 12:18:07;;;;;;;11.25;5.65;;;;;;;26.88;33.10;158220.39;1788865;79;21344;-69
2021/03/05 12:20:40;;;;;;;13.08;5.00;;;;;;;26.78;33.07;158193.81;1789212;79;21352;-68
2021/03/05 12:23:12;;;;;;;11.93;5.17;;;;;;;26.80;32.77;158199.09;1789051;79;21301;-67
2021/03/05 12:25:45;;;;;;;9.18;4.90;;;;;;;26.45;33.05;158106.06;1802002;79;21388;-69
2021/03/05 12:28:18;;;;;;;11.57;5.28;;;;;;;26.19;32.87;158036.98;1854897;77;21692;-68
2021/03/05 12:30:50;;;;;;;10.35;4.95;;;;;;;26.08;32.73;158006.41;1842272;77;21289;-68
2021/03/05 12:33:23;;;;;;;13.83;5.85;;;;;;;25.76;32.90;157922.67;1791307;79;21423;-68
2021/03/05 12:35:56;;;;;;;10.30;5.33;;;;;;;25.61;32.87;157881.52;1794727;79;21198;-67
2021/03/05 12:38:28;;;;;;;12.30;5.65;;;;;;;25.41;33.18;157828.42;1846417;77;21324;-67
2021/03/05 12:41:01;;;;;;;10.00;4.70;;;;;;;25.62;32.89;157884.17;1795342;79;21147;-68
2021/03/05 12:43:34;;;;;;;9.25;4.33;;;;;;;25.62;32.77;157884.17;1790391;80;21360;-68
2021/03/05 12:46:08;;;;;;;6.45;3.45;;;;;;;25.66;32.80;157894.81;1790347;80;21178;-69
2021/03/05 12:48:42;;;;;;;7.65;4.00;;;;;;;25.66;32.38;157894.81;1790807;79;21680;-67
2021/03/05 12:51:16;;;;;;;6.78;3.55;;;;;;;25.69;32.59;157904.09;1790514;80;21851;-67
2021/03/05 12:53:48;;;;;;;10.82;4.70;;;;;;;25.84;32.27;157942.66;1776092;80;21221;-67
2021/03/05 12:56:21;;;;;;;9.78;4.20;;;;;;;26.03;32.17;157993.16;1790561;79;21818;-67
2021/03/05 12:58:54;;;;;;;9.18;4.05;;;;;;;26.47;31.91;158110.09;1809935;79;21221;-68
2021/03/05 13:01:26;;;;;;;9.85;4.12;;;;;;;26.66;31.88;158163.22;1779133;79;21344;-68
2021/03/05 13:03:59;;;;;;;9.95;4.92;;;;;;;26.82;32.19;158205.77;1808544;79;21205;-67
2021/03/05 13:06:33;;;;;;;13.45;5.20;;;;;;;27.16;32.13;158296.20;1805286;79;21293;-68
2021/03/05 13:09:06;;;;;;;8.78;4.85;;;;;;;27.28;31.95;158328.11;1826508;77;21805;-67
2021/03/05 13:11:38;;;;;;;7.08;4.55;;;;;;;26.89;31.82;158224.36;1826509;77;21348;-69
2021/03/05 13:14:11;;;;;;;9.38;4.60;;;;;;;27.24;31.58;158317.45;1824306;78;21164;-67
2021/03/05 13:16:44;;;;;;;8.10;4.10;;;;;;;27.31;31.40;158334.73;1813043;77;21271;-67
2021/03/05 13:19:16;;;;;;;12.90;8.40;;;;;;;27.43;30.95;158367.95;1821344;78;21346;-67
2021/03/05 13:21:49;;;;;;;11.78;6.00;;;;;;;27.27;31.19;158325.45;1821007;79;21227;-67
2021/03/05 13:24:22;;;;;;;10.32;4.35;;;;;;;27.04;31.05;158264.30;1820983;78;21350;-68
2021/03/05 13:26:55;;;;;;;11.55;3.98;;;;;;;26.72;30.54;158179.20;1822661;78;21159;-67
2021/03/05 13:29:27;;;;;;;11.43;4.00;;;;;;;26.66;30.43;158163.22;1826391;78;21309;-67
2021/03/05 13:32:00;;;;;;;10.05;3.95;;;;;;;26.34;30.13;158075.48;1826749;78;21895;-69
2021/03/05 13:34:32;;;;;;;9.55;3.92;;;;;;;26.04;30.37;157995.81;1826530;78;21385;-67
2021/03/05 13:37:05;;;;;;;10.38;5.37;;;;;;;25.94;30.45;157970.56;1820945;78;21251;-68
2021/03/05 13:39:37;;;;;;;9.80;3.95;;;;;;;25.84;30.52;157942.66;1821019;79;21211;-67
2021/03/05 13:42:10;;;;;;;10.45;4.33;;;;;;;25.87;30.34;157950.63;1823194;78;21188;-67
2021/03/05 13:44:43;;;;;;;10.63;4.90;;;;;;;25.86;30.31;157947.97;1826650;78;21322;-68
2021/03/05 13:47:17;;;;;;;11.30;4.37;;;;;;;25.61;30.18;157881.52;1821300;78;21152;-68
2021/03/05 13:49:50;;;;;;;7.95;3.90;;;;;;;25.39;30.51;157821.81;1821367;78;21303;-67
2021/03/05 13:52:22;;;;;;;6.87;3.75;;;;;;;25.07;30.76;157738.11;1821166;79;21208;-67
2021/03/05 13:54:55;;;;;;;7.78;3.47;;;;;;;24.85;30.82;157678.38;1824493;78;21223;-67
2021/03/05 13:57:27;;;;;;;9.00;3.70;;;;;;;24.62;30.94;157617.34;1826453;77;21458;-67
2021/03/05 14:00:00;;;;;;;6.65;3.27;;;;;;;24.49;31.07;157582.84;1826459;78;21176;-67
2021/03/05 14:02:34;;;;;;;9.45;4.20;;;;;;;24.34;31.21;157543.03;1826737;78;21377;-67
2021/03/05 14:05:08;;;;;;;9.85;4.80;;;;;;;24.22;31.83;157511.19;1826002;78;21345;-68
2021/03/05 14:07:41;;;;;;;8.78;4.70;;;;;;;24.23;32.20;157512.50;1826562;78;21445;-68
2021/03/05 14:10:14;;;;;;;8.65;4.35;;;;;;;24.34;32.38;157543.03;1826552;78;21307;-67
2021/03/05 14:12:47;;;;;;;10.82;4.80;;;;;;;24.32;32.58;157536.36;1826366;77;21242;-68
2021/03/05 14:15:19;;;;;;;11.00;5.25;;;;;;;24.22;32.83;157511.19;1821377;78;21785;-67
2021/03/05 14:17:52;;;;;;;11.30;6.10;;;;;;;24.26;33.00;157520.47;1788928;80;21181;-67
2021/03/05 14:20:25;;;;;;;11.08;5.45;;;;;;;24.28;33.03;157525.78;1812375;79;21350;-68
2021/03/05 14:22:57;;;;;;;11.60;5.75;;;;;;;24.39;33.09;157556.27;1792530;79;21732;-67
2021/03/05 14:25:30;;;;;;;12.28;5.75;;;;;;;24.35;33.21;157544.33;1793810;79;21332;-68
2021/03/05 14:28:02;;;;;;;10.90;5.83;;;;;;;24.41;33.23;157560.28;1826429;78;21409;-68
2021/03/05 14:30:35;;;;;;;11.25;5.42;;;;;;;24.55;33.15;157597.44;1826049;78;21296;-68
2021/03/05 14:33:08;;;;;;;13.38;6.10;;;;;;;24.72;33.04;157643.88;1826580;78;21309;-67
2021/03/05 14:35:41;;;;;;;14.95;7.10;;;;;;;24.62;33.11;157616.03;1825918;78;21168;-67
2021/03/05 14:38:14;;;;;;;13.58;5.97;;;;;;;24.51;33.15;157588.16;1826598;78;21389;-68
2021/03/05 14:40:46;;;;;;;12.65;5.70;;;;;;;23.28;34.24;157260.53;1826523;78;21361;-68